Time;durP1;ratioP1;P1;durP2;ratioP2;P2;SDS_P1;SDS_P2;PMS_P1;PMS_P2;Temp;Humidity;BMP_temperature;BMP_pressure;BME280_temperature;BME280_humidity;BME280_pressure;Samples;Min_cycle;Max_cycle;Signal;HPM_P1;HPM_P2
2023/12/29 10:59:33;;;;;;;1.87;1.20;;;;;;;11.69;90.95;98641.59;5068612;28;20522;-89
2023/12/29 11:02:03;;;;;;;1.90;1.53;;;;;;;12.90;83.60;98647.78;5050859;28;39965;-89
2023/12/29 11:04:37;;;;;;;1.67;1.20;;;;;;;13.97;76.98;98637.69;5050481;28;41491;-91
2023/12/29 11:07:10;;;;;;;1.20;0.93;;;;;;;15.45;70.15;98709.78;5051007;28;41936;-90
2023/12/29 11:09:51;;;;;;;0.97;0.87;;;;;;;16.11;63.65;98699.66;5050797;28;41103;-90
2023/12/29 11:12:28;;;;;;;2.03;1.07;;;;;;;17.02;62.08;98757.50;5051022;28;40512;-91
2023/12/29 11:15:17;;;;;;;1.83;1.00;;;;;;;17.13;59.75;98745.81;5050870;28;42306;-89
2023/12/29 11:18:06;;;;;;;0.70;0.70;;;;;;;16.87;58.25;98732.13;5050854;28;42160;-90
2023/12/29 11:20:43;;;;;;;0.80;0.80;;;;;;;16.45;57.15;98707.34;5050825;28;43488;-88
2023/12/29 11:26:39;;;;;;;1.00;0.90;;;;;;;15.52;58.52;98679.91;5049105;28;41348;-89
2023/12/29 11:29:16;;;;;;;1.20;1.03;;;;;;;15.61;59.94;98732.56;5067304;28;41939;-88
2023/12/29 11:32:06;;;;;;;0.93;0.87;;;;;;;15.26;60.44;98723.00;5050674;28;41271;-89
2023/12/29 11:35:04;;;;;;;2.20;0.90;;;;;;;15.00;61.55;98740.31;5050503;28;39775;-89
2023/12/29 11:43:42;;;;;;;1.90;0.97;;;;;;;13.94;64.29;98652.09;5100242;28;42946;-90
2023/12/29 11:46:38;;;;;;;1.03;0.70;;;;;;;14.23;65.13;98704.81;5091035;28;39436;-91
2023/12/29 11:49:11;;;;;;;0.80;0.80;;;;;;;14.16;64.95;98707.16;5091308;28;40729;-88
2023/12/29 11:52:08;;;;;;;0.87;0.77;;;;;;;14.00;64.87;98704.00;5090540;28;43376;-88
2023/12/29 11:54:36;;;;;;;1.27;0.80;;;;;;;14.01;63.89;98711.84;5048845;28;40976;-91
2023/12/29 11:57:56;;;;;;;1.10;0.83;;;;;;;13.99;63.78;98713.78;5049465;28;38709;-89
2023/12/29 12:09:55;;;;;;;1.20;0.73;;;;;;;14.29;63.72;98710.53;5085687;28;38947;-89
2023/12/29 12:12:40;;;;;;;1.30;0.90;;;;;;;13.78;62.66;98635.63;5080295;28;41393;-89
2023/12/29 12:15:33;;;;;;;1.07;0.63;;;;;;;13.81;63.30;98624.75;5080252;28;43110;-88
2023/12/29 12:18:05;;;;;;;1.77;0.90;;;;;;;14.10;64.04;98666.81;5081247;28;43031;-89
2023/12/29 12:20:34;;;;;;;1.13;1.00;;;;;;;14.13;64.57;98661.25;5085527;28;40615;-88
2023/12/29 12:23:26;;;;;;;0.97;0.90;;;;;;;14.22;64.41;98679.16;5069569;28;42077;-89
2023/12/29 12:26:24;;;;;;;0.83;0.80;;;;;;;13.89;64.48;98610.81;5086735;28;43481;-89
2023/12/29 12:29:15;;;;;;;1.17;1.07;;;;;;;14.09;64.75;98660.69;5084077;28;41919;-89
2023/12/29 12:32:02;;;;;;;2.00;0.97;;;;;;;14.04;65.35;98665.50;5084637;28;38409;-87
2023/12/29 12:34:46;;;;;;;2.20;1.07;;;;;;;13.88;66.17;98652.56;5079756;28;41041;-90
2023/12/29 12:37:23;;;;;;;1.33;1.23;;;;;;;13.81;66.54;98635.41;5079402;28;43067;-89
2023/12/29 12:40:28;;;;;;;2.90;1.23;;;;;;;14.10;66.29;98686.31;5079819;28;42410;-90
2023/12/29 12:42:59;;;;;;;1.10;1.00;;;;;;;13.99;66.22;98681.00;5076074;28;40646;-89
2023/12/29 12:45:50;;;;;;;2.80;1.50;;;;;;;13.78;67.06;98653.41;5096414;28;41241;-90
2023/12/29 12:48:44;;;;;;;2.37;1.37;;;;;;;13.75;65.96;98649.19;5078311;28;41579;-89
2023/12/29 12:51:26;;;;;;;3.50;1.97;;;;;;;13.77;66.54;98633.94;5096352;28;41719;-90
2023/12/29 12:53:56;;;;;;;1.67;1.10;;;;;;;13.52;66.11;98591.59;5096479;28;39247;-89
2023/12/29 12:56:43;;;;;;;1.57;1.10;;;;;;;13.93;65.08;98669.03;5079255;28;41939;-89
2023/12/29 12:59:24;;;;;;;3.83;1.50;;;;;;;13.83;65.29;98654.75;5079824;28;42144;-89
2023/12/29 13:02:26;;;;;;;2.50;1.40;;;;;;;13.94;65.38;98680.53;5093393;28;41246;-90
2023/12/29 13:05:16;;;;;;;1.53;1.30;;;;;;;13.78;65.28;98656.06;5017499;28;39248;-90
2023/12/29 13:07:56;;;;;;;1.70;0.83;;;;;;;13.97;65.03;98683.78;5017482;28;43326;-90
2023/12/29 13:14:13;;;;;;;1.43;0.93;;;;;;;13.92;63.88;98683.31;5078516;28;42483;-87
2023/12/29 13:16:44;;;;;;;1.03;0.70;;;;;;;13.65;64.21;98634.91;5078908;28;39326;-90
2023/12/29 13:19:38;;;;;;;1.00;0.80;;;;;;;13.88;64.45;98673.00;5079317;28;40640;-90
2023/12/29 13:22:27;;;;;;;1.10;0.83;;;;;;;13.78;64.27;98672.03;5077634;28;43096;-90
2023/12/29 13:24:56;;;;;;;0.80;0.80;;;;;;;13.71;64.81;98654.88;5078340;28;41305;-90
2023/12/29 13:28:06;;;;;;;1.40;1.30;;;;;;;13.85;65.08;98676.75;5079344;28;39016;-90
2023/12/29 13:42:48;;;;;;;1.00;0.70;;;;;;;14.37;61.59;98657.47;5131567;27;42659;-89
2023/12/29 13:45:19;;;;;;;0.60;0.60;;;;;;;14.54;61.36;98665.94;5099325;27;44894;-89
2023/12/29 13:48:30;;;;;;;1.23;0.87;;;;;;;14.51;61.25;98640.38;5116284;27;41381;-92
2023/12/29 13:50:58;;;;;;;0.60;0.60;;;;;;;14.70;60.27;98650.41;5098939;27;40248;-89
2023/12/29 13:53:26;;;;;;;1.33;0.80;;;;;;;14.75;60.24;98653.50;5098827;27;41375;-89
2023/12/29 13:56:09;;;;;;;1.20;0.77;;;;;;;14.61;60.09;98643.97;5099145;27;42895;-89
2023/12/29 13:59:06;;;;;;;0.90;0.90;;;;;;;14.72;59.75;98659.94;5098809;27;41038;-90
2023/12/29 14:01:58;;;;;;;1.23;0.73;;;;;;;14.68;59.02;98669.19;5096061;27;39568;-89
2023/12/29 14:04:25;;;;;;;0.63;0.53;;;;;;;14.66;59.10;98664.94;5098945;27;41802;-89
2023/12/29 14:06:56;;;;;;;1.63;0.67;;;;;;;14.24;59.79;98589.31;5098678;27;43230;-89
2023/12/29 14:09:29;;;;;;;0.67;0.60;;;;;;;14.22;59.02;98586.78;5098781;27;42193;-88
2023/12/29 14:12:00;;;;;;;1.97;0.90;;;;;;;14.23;59.39;98587.63;5098722;27;39788;-90
2023/12/29 14:14:56;;;;;;;0.60;0.60;;;;;;;14.54;59.65;98644.63;5117221;27;41771;-90
2023/12/29 14:17:55;;;;;;;1.67;0.80;;;;;;;14.36;60.27;98636.28;5098435;27;42923;-89
2023/12/29 14:20:37;;;;;;;0.60;0.60;;;;;;;14.25;60.07;98646.97;5052428;28;43580;-91
2023/12/29 14:23:09;;;;;;;0.60;0.60;;;;;;;14.02;60.80;98623.03;5053811;28;40802;-89
2023/12/29 14:25:40;;;;;;;0.87;0.67;;;;;;;13.76;60.52;98589.66;5053593;28;41156;-89
2023/12/29 14:28:16;;;;;;;0.70;0.70;;;;;;;13.81;61.35;98624.75;5053417;28;41719;-88
2023/12/29 14:33:40;;;;;;;0.60;0.60;;;;;;;13.63;62.05;98632.34;5127292;27;40470;-90
2023/12/29 14:36:09;;;;;;;1.03;0.50;;;;;;;13.64;62.47;98646.50;5098361;27;40867;-89
2023/12/29 14:38:37;;;;;;;0.80;0.70;;;;;;;13.67;62.22;98643.63;5098111;27;41899;-89
2023/12/29 14:41:27;;;;;;;0.73;0.63;;;;;;;13.47;62.64;98599.13;5098627;27;41464;-90
2023/12/29 14:44:03;;;;;;;1.00;0.90;;;;;;;13.50;62.70;98604.16;5098097;27;40256;-90
2023/12/29 14:46:32;;;;;;;0.70;0.70;;;;;;;13.77;63.07;98649.91;5115921;27;40612;-90
2023/12/29 14:49:05;;;;;;;0.70;0.70;;;;;;;13.71;63.35;98639.75;5114964;27;43053;-90
